sensor_id;sensor_type;location;lat;lon;timestamp;temperature;humidity
64987;DHT22;51532;52.108;9.360;2023-02-01T00:01:12;4.30;75.50
64987;DHT22;51532;52.108;9.360;2023-02-01T00:03:39;4.30;75.60
64987;DHT22;51532;52.108;9.360;2023-02-01T00:06:06;4.20;76.00
64987;DHT22;51532;52.108;9.360;2023-02-01T00:08:33;4.20;75.80
64987;DHT22;51532;52.108;9.360;2023-02-01T00:11:10;4.20;75.70
64987;DHT22;51532;52.108;9.360;2023-02-01T00:13:41;4.20;75.30
64987;DHT22;51532;52.108;9.360;2023-02-01T00:16:20;4.20;75.50
64987;DHT22;51532;52.108;9.360;2023-02-01T00:18:49;4.20;75.70
64987;DHT22;51532;52.108;9.360;2023-02-01T00:21:19;4.20;75.60
64987;DHT22;51532;52.108;9.360;2023-02-01T00:23:46;4.10;76.00
64987;DHT22;51532;52.108;9.360;2023-02-01T00:26:34;4.20;75.40
64987;DHT22;51532;52.108;9.360;2023-02-01T00:29:04;4.20;75.60
64987;DHT22;51532;52.108;9.360;2023-02-01T00:31:32;4.20;75.40
64987;DHT22;51532;52.108;9.360;2023-02-01T00:33:59;4.20;75.20
64987;DHT22;51532;52.108;9.360;2023-02-01T00:36:26;4.20;75.10
64987;DHT22;51532;52.108;9.360;2023-02-01T00:38:53;4.20;75.10
64987;DHT22;51532;52.108;9.360;2023-02-01T00:41:21;4.20;75.20
64987;DHT22;51532;52.108;9.360;2023-02-01T00:43:49;4.20;75.20
64987;DHT22;51532;52.108;9.360;2023-02-01T00:46:17;4.20;75.30
64987;DHT22;51532;52.108;9.360;2023-02-01T00:48:45;4.20;75.50
64987;DHT22;51532;52.108;9.360;2023-02-01T00:51:14;4.10;75.90
64987;DHT22;51532;52.108;9.360;2023-02-01T00:53:41;4.20;75.30
64987;DHT22;51532;52.108;9.360;2023-02-01T00:56:09;4.10;75.60
64987;DHT22;51532;52.108;9.360;2023-02-01T00:58:36;4.00;76.30
64987;DHT22;51532;52.108;9.360;2023-02-01T01:01:08;4.00;76.00
64987;DHT22;51532;52.108;9.360;2023-02-01T01:03:41;4.10;75.80
64987;DHT22;51532;52.108;9.360;2023-02-01T01:06:14;4.00;76.10
64987;DHT22;51532;52.108;9.360;2023-02-01T01:08:42;4.00;75.80
64987;DHT22;51532;52.108;9.360;2023-02-01T01:11:11;4.10;75.70
64987;DHT22;51532;52.108;9.360;2023-02-01T01:13:39;4.10;75.40
64987;DHT22;51532;52.108;9.360;2023-02-01T01:16:07;4.10;75.70
64987;DHT22;51532;52.108;9.360;2023-02-01T01:18:35;4.00;76.20
64987;DHT22;51532;52.108;9.360;2023-02-01T01:21:04;4.00;76.40
64987;DHT22;51532;52.108;9.360;2023-02-01T01:23:31;4.10;76.00
64987;DHT22;51532;52.108;9.360;2023-02-01T01:25:58;4.00;76.10
64987;DHT22;51532;52.108;9.360;2023-02-01T01:28:25;4.00;76.40
64987;DHT22;51532;52.108;9.360;2023-02-01T01:30:52;4.00;76.20
64987;DHT22;51532;52.108;9.360;2023-02-01T01:33:18;4.00;76.60
64987;DHT22;51532;52.108;9.360;2023-02-01T01:35:45;4.10;75.90
64987;DHT22;51532;52.108;9.360;2023-02-01T01:38:12;4.20;75.80
64987;DHT22;51532;52.108;9.360;2023-02-01T01:40:39;4.10;76.00
64987;DHT22;51532;52.108;9.360;2023-02-01T01:43:13;4.10;76.00
64987;DHT22;51532;52.108;9.360;2023-02-01T01:45:41;4.00;76.40
64987;DHT22;51532;52.108;9.360;2023-02-01T01:48:18;4.10;76.20
64987;DHT22;51532;52.108;9.360;2023-02-01T01:50:57;4.10;76.30
64987;DHT22;51532;52.108;9.360;2023-02-01T01:53:33;4.20;75.60
64987;DHT22;51532;52.108;9.360;2023-02-01T01:56:01;4.30;75.30
64987;DHT22;51532;52.108;9.360;2023-02-01T01:58:29;4.20;75.40
64987;DHT22;51532;52.108;9.360;2023-02-01T02:00:57;4.30;75.50
64987;DHT22;51532;52.108;9.360;2023-02-01T02:03:32;4.20;75.20
64987;DHT22;51532;52.108;9.360;2023-02-01T02:06:02;4.20;75.40
64987;DHT22;51532;52.108;9.360;2023-02-01T02:08:30;4.20;75.30
64987;DHT22;51532;52.108;9.360;2023-02-01T02:10:57;4.30;74.80
64987;DHT22;51532;52.108;9.360;2023-02-01T02:13:35;4.30;74.80
64987;DHT22;51532;52.108;9.360;2023-02-01T02:24:58;4.50;74.20
64987;DHT22;51532;52.108;9.360;2023-02-01T02:33:43;4.50;74.10
64987;DHT22;51532;52.108;9.360;2023-02-01T02:41:37;4.50;74.50
64987;DHT22;51532;52.108;9.360;2023-02-01T02:44:56;4.40;74.70
64987;DHT22;51532;52.108;9.360;2023-02-01T02:50:24;4.50;74.30
64987;DHT22;51532;52.108;9.360;2023-02-01T02:53:16;4.50;74.30
64987;DHT22;51532;52.108;9.360;2023-02-01T02:56:06;4.60;74.10
64987;DHT22;51532;52.108;9.360;2023-02-01T02:58:52;4.70;73.80
64987;DHT22;51532;52.108;9.360;2023-02-01T03:01:40;4.70;74.00
64987;DHT22;51532;52.108;9.360;2023-02-01T03:04:26;4.50;74.10
64987;DHT22;51532;52.108;9.360;2023-02-01T03:06:54;4.70;73.80
64987;DHT22;51532;52.108;9.360;2023-02-01T03:09:33;4.70;73.60
64987;DHT22;51532;52.108;9.360;2023-02-01T03:12:06;4.70;73.40
64987;DHT22;51532;52.108;9.360;2023-02-01T03:15:08;4.70;73.70
64987;DHT22;51532;52.108;9.360;2023-02-01T03:17:42;4.80;73.40
64987;DHT22;51532;52.108;9.360;2023-02-01T03:20:10;4.70;73.20
64987;DHT22;51532;52.108;9.360;2023-02-01T03:22:41;4.80;73.20
64987;DHT22;51532;52.108;9.360;2023-02-01T03:25:14;4.80;73.40
64987;DHT22;51532;52.108;9.360;2023-02-01T03:27:52;4.90;73.20
64987;DHT22;51532;52.108;9.360;2023-02-01T03:30:26;4.90;73.50
64987;DHT22;51532;52.108;9.360;2023-02-01T03:32:56;4.90;73.20
64987;DHT22;51532;52.108;9.360;2023-02-01T03:41:06;4.80;73.80
64987;DHT22;51532;52.108;9.360;2023-02-01T03:43:51;4.80;74.00
64987;DHT22;51532;52.108;9.360;2023-02-01T03:46:27;4.90;73.60
64987;DHT22;51532;52.108;9.360;2023-02-01T03:49:05;4.70;74.30
64987;DHT22;51532;52.108;9.360;2023-02-01T03:51:36;4.70;75.00
64987;DHT22;51532;52.108;9.360;2023-02-01T03:54:06;4.70;74.50
64987;DHT22;51532;52.108;9.360;2023-02-01T03:56:37;4.70;74.40
64987;DHT22;51532;52.108;9.360;2023-02-01T03:59:04;4.70;74.40
64987;DHT22;51532;52.108;9.360;2023-02-01T04:01:34;4.70;74.30
64987;DHT22;51532;52.108;9.360;2023-02-01T04:04:01;4.70;74.30
64987;DHT22;51532;52.108;9.360;2023-02-01T04:06:28;4.70;74.00
64987;DHT22;51532;52.108;9.360;2023-02-01T04:08:59;4.70;74.00
64987;DHT22;51532;52.108;9.360;2023-02-01T04:11:26;4.70;73.80
64987;DHT22;51532;52.108;9.360;2023-02-01T04:13:54;4.80;73.50
64987;DHT22;51532;52.108;9.360;2023-02-01T04:16:20;4.80;73.40
64987;DHT22;51532;52.108;9.360;2023-02-01T04:18:47;4.90;73.10
64987;DHT22;51532;52.108;9.360;2023-02-01T04:21:14;4.90;73.30
64987;DHT22;51532;52.108;9.360;2023-02-01T04:23:41;4.90;73.50
64987;DHT22;51532;52.108;9.360;2023-02-01T04:26:07;4.90;73.20
64987;DHT22;51532;52.108;9.360;2023-02-01T04:28:34;4.80;73.40
64987;DHT22;51532;52.108;9.360;2023-02-01T04:31:01;4.80;73.30
64987;DHT22;51532;52.108;9.360;2023-02-01T04:33:28;4.80;73.50
64987;DHT22;51532;52.108;9.360;2023-02-01T04:35:54;4.80;73.50
64987;DHT22;51532;52.108;9.360;2023-02-01T04:38:21;4.80;73.60
64987;DHT22;51532;52.108;9.360;2023-02-01T04:40:48;4.90;73.20
64987;DHT22;51532;52.108;9.360;2023-02-01T04:43:16;4.90;73.20
64987;DHT22;51532;52.108;9.360;2023-02-01T04:45:47;4.90;73.10
64987;DHT22;51532;52.108;9.360;2023-02-01T04:48:16;4.90;72.80
64987;DHT22;51532;52.108;9.360;2023-02-01T04:50:44;4.80;75.20
64987;DHT22;51532;52.108;9.360;2023-02-01T04:53:16;4.70;75.30
64987;DHT22;51532;52.108;9.360;2023-02-01T04:55:44;4.70;74.80
64987;DHT22;51532;52.108;9.360;2023-02-01T04:58:11;4.70;75.00
64987;DHT22;51532;52.108;9.360;2023-02-01T05:00:37;4.70;74.40
64987;DHT22;51532;52.108;9.360;2023-02-01T05:03:04;4.70;73.90
64987;DHT22;51532;52.108;9.360;2023-02-01T05:05:31;4.70;74.10
64987;DHT22;51532;52.108;9.360;2023-02-01T05:07:58;4.90;73.10
64987;DHT22;51532;52.108;9.360;2023-02-01T05:10:25;4.90;73.60
64987;DHT22;51532;52.108;9.360;2023-02-01T05:12:52;4.80;77.90
64987;DHT22;51532;52.108;9.360;2023-02-01T05:15:37;4.50;79.70
64987;DHT22;51532;52.108;9.360;2023-02-01T05:18:04;4.40;78.80
64987;DHT22;51532;52.108;9.360;2023-02-01T05:20:31;4.40;79.30
64987;DHT22;51532;52.108;9.360;2023-02-01T05:22:57;4.40;79.30
64987;DHT22;51532;52.108;9.360;2023-02-01T05:25:24;4.40;79.30
64987;DHT22;51532;52.108;9.360;2023-02-01T05:27:51;4.40;79.20
64987;DHT22;51532;52.108;9.360;2023-02-01T05:30:19;4.40;78.80
64987;DHT22;51532;52.108;9.360;2023-02-01T05:32:50;4.40;78.60
64987;DHT22;51532;52.108;9.360;2023-02-01T05:35:16;4.40;78.40
64987;DHT22;51532;52.108;9.360;2023-02-01T05:37:43;4.50;78.00
64987;DHT22;51532;52.108;9.360;2023-02-01T05:40:10;4.50;77.30
64987;DHT22;51532;52.108;9.360;2023-02-01T05:42:37;4.50;76.90
64987;DHT22;51532;52.108;9.360;2023-02-01T05:45:04;4.50;77.20
64987;DHT22;51532;52.108;9.360;2023-02-01T05:47:31;4.50;77.20
64987;DHT22;51532;52.108;9.360;2023-02-01T05:49:58;4.50;76.90
64987;DHT22;51532;52.108;9.360;2023-02-01T05:52:25;4.70;76.40
64987;DHT22;51532;52.108;9.360;2023-02-01T05:54:52;4.60;76.00
64987;DHT22;51532;52.108;9.360;2023-02-01T05:57:19;4.60;76.40
64987;DHT22;51532;52.108;9.360;2023-02-01T05:59:46;4.50;76.90
64987;DHT22;51532;52.108;9.360;2023-02-01T06:02:16;4.50;77.50
64987;DHT22;51532;52.108;9.360;2023-02-01T06:04:43;4.50;77.60
64987;DHT22;51532;52.108;9.360;2023-02-01T06:07:09;4.50;78.10
64987;DHT22;51532;52.108;9.360;2023-02-01T06:09:37;4.50;78.40
64987;DHT22;51532;52.108;9.360;2023-02-01T06:12:04;4.40;79.40
64987;DHT22;51532;52.108;9.360;2023-02-01T06:14:30;4.40;79.50
64987;DHT22;51532;52.108;9.360;2023-02-01T06:16:57;4.40;79.10
64987;DHT22;51532;52.108;9.360;2023-02-01T06:19:24;4.40;79.20
64987;DHT22;51532;52.108;9.360;2023-02-01T06:21:51;4.30;80.50
64987;DHT22;51532;52.108;9.360;2023-02-01T06:24:18;4.20;81.40
64987;DHT22;51532;52.108;9.360;2023-02-01T06:26:44;4.10;84.00
64987;DHT22;51532;52.108;9.360;2023-02-01T06:29:12;3.90;84.00
64987;DHT22;51532;52.108;9.360;2023-02-01T06:31:39;3.90;83.40
64987;DHT22;51532;52.108;9.360;2023-02-01T06:34:06;4.00;82.50
64987;DHT22;51532;52.108;9.360;2023-02-01T06:36:33;4.00;82.60
64987;DHT22;51532;52.108;9.360;2023-02-01T06:39:00;4.00;83.10
64987;DHT22;51532;52.108;9.360;2023-02-01T06:41:26;4.10;81.80
64987;DHT22;51532;52.108;9.360;2023-02-01T06:43:55;4.20;81.40
64987;DHT22;51532;52.108;9.360;2023-02-01T06:46:22;4.30;80.80
64987;DHT22;51532;52.108;9.360;2023-02-01T06:48:49;4.40;80.70
64987;DHT22;51532;52.108;9.360;2023-02-01T06:51:35;4.40;80.30
64987;DHT22;51532;52.108;9.360;2023-02-01T06:54:02;4.40;80.10
64987;DHT22;51532;52.108;9.360;2023-02-01T06:56:29;4.40;79.70
64987;DHT22;51532;52.108;9.360;2023-02-01T06:58:58;4.50;80.20
64987;DHT22;51532;52.108;9.360;2023-02-01T07:01:24;4.40;80.80
64987;DHT22;51532;52.108;9.360;2023-02-01T07:03:51;4.50;80.70
64987;DHT22;51532;52.108;9.360;2023-02-01T07:06:18;4.50;81.40
64987;DHT22;51532;52.108;9.360;2023-02-01T07:08:45;4.40;80.60
64987;DHT22;51532;52.108;9.360;2023-02-01T07:11:14;4.40;80.30
64987;DHT22;51532;52.108;9.360;2023-02-01T07:13:41;4.50;78.90
64987;DHT22;51532;52.108;9.360;2023-02-01T07:16:13;4.50;79.70
64987;DHT22;51532;52.108;9.360;2023-02-01T07:18:41;4.50;79.20
64987;DHT22;51532;52.108;9.360;2023-02-01T07:21:08;4.60;78.70
64987;DHT22;51532;52.108;9.360;2023-02-01T07:23:35;4.70;78.00
64987;DHT22;51532;52.108;9.360;2023-02-01T07:26:04;4.70;77.10
64987;DHT22;51532;52.108;9.360;2023-02-01T07:28:33;4.70;76.90
64987;DHT22;51532;52.108;9.360;2023-02-01T07:31:19;4.70;77.60
64987;DHT22;51532;52.108;9.360;2023-02-01T07:33:48;4.70;77.40
64987;DHT22;51532;52.108;9.360;2023-02-01T07:36:18;4.70;77.80
64987;DHT22;51532;52.108;9.360;2023-02-01T07:38:45;4.70;78.10
64987;DHT22;51532;52.108;9.360;2023-02-01T07:41:16;4.70;77.20
64987;DHT22;51532;52.108;9.360;2023-02-01T07:43:43;4.70;77.60
64987;DHT22;51532;52.108;9.360;2023-02-01T07:46:10;4.70;77.60
64987;DHT22;51532;52.108;9.360;2023-02-01T07:48:37;4.70;77.20
64987;DHT22;51532;52.108;9.360;2023-02-01T07:51:15;4.90;76.80
64987;DHT22;51532;52.108;9.360;2023-02-01T07:53:43;4.90;76.80
64987;DHT22;51532;52.108;9.360;2023-02-01T07:56:15;4.90;76.60
64987;DHT22;51532;52.108;9.360;2023-02-01T07:58:50;4.90;76.70
64987;DHT22;51532;52.108;9.360;2023-02-01T08:01:24;5.00;75.90
64987;DHT22;51532;52.108;9.360;2023-02-01T08:03:57;5.00;75.50
64987;DHT22;51532;52.108;9.360;2023-02-01T08:06:30;5.00;75.10
64987;DHT22;51532;52.108;9.360;2023-02-01T08:08:58;5.10;74.50
64987;DHT22;51532;52.108;9.360;2023-02-01T08:11:25;5.20;74.70
64987;DHT22;51532;52.108;9.360;2023-02-01T08:13:52;5.20;74.50
64987;DHT22;51532;52.108;9.360;2023-02-01T08:16:20;5.10;74.70
64987;DHT22;51532;52.108;9.360;2023-02-01T08:18:48;5.20;74.30
64987;DHT22;51532;52.108;9.360;2023-02-01T08:21:20;5.20;74.30
64987;DHT22;51532;52.108;9.360;2023-02-01T08:23:49;5.20;74.20
64987;DHT22;51532;52.108;9.360;2023-02-01T08:26:17;5.30;74.30
64987;DHT22;51532;52.108;9.360;2023-02-01T08:28:47;5.30;73.80
64987;DHT22;51532;52.108;9.360;2023-02-01T08:31:16;5.30;74.40
64987;DHT22;51532;52.108;9.360;2023-02-01T08:33:48;5.30;74.70
64987;DHT22;51532;52.108;9.360;2023-02-01T08:36:16;5.30;74.20
64987;DHT22;51532;52.108;9.360;2023-02-01T08:38:43;5.30;74.50
64987;DHT22;51532;52.108;9.360;2023-02-01T08:41:15;5.30;74.10
64987;DHT22;51532;52.108;9.360;2023-02-01T08:43:43;5.30;74.40
64987;DHT22;51532;52.108;9.360;2023-02-01T08:46:11;5.30;74.20
64987;DHT22;51532;52.108;9.360;2023-02-01T08:48:38;5.50;73.50
64987;DHT22;51532;52.108;9.360;2023-02-01T08:51:07;5.50;73.60
64987;DHT22;51532;52.108;9.360;2023-02-01T08:53:34;5.50;73.70
64987;DHT22;51532;52.108;9.360;2023-02-01T08:56:03;5.30;75.00
64987;DHT22;51532;52.108;9.360;2023-02-01T08:58:30;5.20;75.70
64987;DHT22;51532;52.108;9.360;2023-02-01T09:00:57;5.10;76.20
64987;DHT22;51532;52.108;9.360;2023-02-01T09:03:24;5.10;77.20
64987;DHT22;51532;52.108;9.360;2023-02-01T09:05:50;5.00;76.60
64987;DHT22;51532;52.108;9.360;2023-02-01T09:08:20;5.10;76.00
64987;DHT22;51532;52.108;9.360;2023-02-01T09:10:47;5.10;76.50
64987;DHT22;51532;52.108;9.360;2023-02-01T09:13:13;5.20;75.50
64987;DHT22;51532;52.108;9.360;2023-02-01T09:15:40;5.30;75.30
64987;DHT22;51532;52.108;9.360;2023-02-01T09:18:07;5.30;75.10
64987;DHT22;51532;52.108;9.360;2023-02-01T09:20:34;5.40;75.10
64987;DHT22;51532;52.108;9.360;2023-02-01T09:23:00;5.50;74.00
64987;DHT22;51532;52.108;9.360;2023-02-01T09:25:27;5.50;74.20
64987;DHT22;51532;52.108;9.360;2023-02-01T09:27:54;5.60;73.40
64987;DHT22;51532;52.108;9.360;2023-02-01T09:30:21;5.60;72.80
64987;DHT22;51532;52.108;9.360;2023-02-01T09:32:48;5.60;73.00
64987;DHT22;51532;52.108;9.360;2023-02-01T09:35:15;5.70;72.60
64987;DHT22;51532;52.108;9.360;2023-02-01T09:37:42;5.70;72.70
64987;DHT22;51532;52.108;9.360;2023-02-01T09:40:16;5.60;73.00
64987;DHT22;51532;52.108;9.360;2023-02-01T09:43:15;5.70;72.60
64987;DHT22;51532;52.108;9.360;2023-02-01T09:48:41;5.80;72.40
64987;DHT22;51532;52.108;9.360;2023-02-01T09:51:23;5.90;72.00
64987;DHT22;51532;52.108;9.360;2023-02-01T09:54:05;5.90;72.20
64987;DHT22;51532;52.108;9.360;2023-02-01T09:56:51;6.00;71.30
64987;DHT22;51532;52.108;9.360;2023-02-01T09:59:32;6.00;71.20
64987;DHT22;51532;52.108;9.360;2023-02-01T10:02:02;6.10;71.30
64987;DHT22;51532;52.108;9.360;2023-02-01T10:04:29;6.10;70.90
64987;DHT22;51532;52.108;9.360;2023-02-01T10:07:09;6.10;70.40
64987;DHT22;51532;52.108;9.360;2023-02-01T10:09:58;6.10;70.30
64987;DHT22;51532;52.108;9.360;2023-02-01T10:13:05;6.20;70.40
64987;DHT22;51532;52.108;9.360;2023-02-01T10:15:58;6.20;69.60
64987;DHT22;51532;52.108;9.360;2023-02-01T10:26:46;6.30;69.30
64987;DHT22;51532;52.108;9.360;2023-02-01T10:29:19;6.30;69.60
64987;DHT22;51532;52.108;9.360;2023-02-01T10:31:46;6.30;69.30
64987;DHT22;51532;52.108;9.360;2023-02-01T10:34:30;6.30;69.50
64987;DHT22;51532;52.108;9.360;2023-02-01T10:37:15;6.30;69.10
64987;DHT22;51532;52.108;9.360;2023-02-01T10:39:47;6.30;68.80
64987;DHT22;51532;52.108;9.360;2023-02-01T10:42:18;6.30;69.30
64987;DHT22;51532;52.108;9.360;2023-02-01T10:44:47;6.30;69.40
64987;DHT22;51532;52.108;9.360;2023-02-01T10:47:15;6.40;69.20
64987;DHT22;51532;52.108;9.360;2023-02-01T10:50:05;6.40;68.60
64987;DHT22;51532;52.108;9.360;2023-02-01T10:53:01;6.40;68.60
64987;DHT22;51532;52.108;9.360;2023-02-01T10:58:01;6.40;68.90
64987;DHT22;51532;52.108;9.360;2023-02-01T11:00:53;6.40;68.70
64987;DHT22;51532;52.108;9.360;2023-02-01T11:08:58;6.20;69.30
64987;DHT22;51532;52.108;9.360;2023-02-01T11:11:25;6.20;69.60
64987;DHT22;51532;52.108;9.360;2023-02-01T11:13:55;6.20;69.40
64987;DHT22;51532;52.108;9.360;2023-02-01T11:16:29;6.20;69.20
64987;DHT22;51532;52.108;9.360;2023-02-01T11:18:58;6.10;69.50
64987;DHT22;51532;52.108;9.360;2023-02-01T11:21:25;6.10;69.80
64987;DHT22;51532;52.108;9.360;2023-02-01T11:23:52;6.10;69.60
64987;DHT22;51532;52.108;9.360;2023-02-01T11:26:24;6.10;69.80
64987;DHT22;51532;52.108;9.360;2023-02-01T11:29:02;6.10;69.40
64987;DHT22;51532;52.108;9.360;2023-02-01T11:31:32;6.10;70.00
64987;DHT22;51532;52.108;9.360;2023-02-01T11:36:33;6.10;69.70
64987;DHT22;51532;52.108;9.360;2023-02-01T11:39:30;6.10;70.20
64987;DHT22;51532;52.108;9.360;2023-02-01T11:42:01;6.10;70.00
64987;DHT22;51532;52.108;9.360;2023-02-01T11:44:36;6.10;70.30
64987;DHT22;51532;52.108;9.360;2023-02-01T11:47:23;6.10;70.00
64987;DHT22;51532;52.108;9.360;2023-02-01T11:49:59;6.20;70.30
64987;DHT22;51532;52.108;9.360;2023-02-01T11:52:55;6.20;70.40
64987;DHT22;51532;52.108;9.360;2023-02-01T11:58:52;6.20;70.20
64987;DHT22;51532;52.108;9.360;2023-02-01T12:01:40;6.20;70.10
64987;DHT22;51532;52.108;9.360;2023-02-01T12:10:39;6.30;70.80
64987;DHT22;51532;52.108;9.360;2023-02-01T12:16:08;6.30;71.20
64987;DHT22;51532;52.108;9.360;2023-02-01T12:21:26;6.30;71.20
64987;DHT22;51532;52.108;9.360;2023-02-01T12:24:23;6.20;72.60
64987;DHT22;51532;52.108;9.360;2023-02-01T12:27:05;6.00;74.20
64987;DHT22;51532;52.108;9.360;2023-02-01T12:32:47;5.60;78.40
64987;DHT22;51532;52.108;9.360;2023-02-01T12:35:49;5.50;79.70
64987;DHT22;51532;52.108;9.360;2023-02-01T12:38:51;5.40;79.70
64987;DHT22;51532;52.108;9.360;2023-02-01T12:41:28;5.30;80.70
64987;DHT22;51532;52.108;9.360;2023-02-01T12:44:10;5.30;80.70
64987;DHT22;51532;52.108;9.360;2023-02-01T12:46:49;5.30;80.50
64987;DHT22;51532;52.108;9.360;2023-02-01T12:52:01;5.20;80.70
64987;DHT22;51532;52.108;9.360;2023-02-01T12:54:42;5.10;80.70
64987;DHT22;51532;52.108;9.360;2023-02-01T12:57:17;5.00;81.40
64987;DHT22;51532;52.108;9.360;2023-02-01T13:00:36;4.90;82.40
64987;DHT22;51532;52.108;9.360;2023-02-01T13:02:52;4.90;82.40
64987;DHT22;51532;52.108;9.360;2023-02-01T13:05:26;4.90;82.00
64987;DHT22;51532;52.108;9.360;2023-02-01T13:08:05;4.90;82.60
64987;DHT22;51532;52.108;9.360;2023-02-01T13:10:48;4.90;82.00
64987;DHT22;51532;52.108;9.360;2023-02-01T13:13:28;5.00;81.80
64987;DHT22;51532;52.108;9.360;2023-02-01T13:16:06;5.00;81.20
64987;DHT22;51532;52.108;9.360;2023-02-01T13:18:41;5.00;81.20
64987;DHT22;51532;52.108;9.360;2023-02-01T13:21:24;5.00;81.90
64987;DHT22;51532;52.108;9.360;2023-02-01T13:23:53;4.80;86.00
64987;DHT22;51532;52.108;9.360;2023-02-01T13:26:20;4.80;85.00
64987;DHT22;51532;52.108;9.360;2023-02-01T13:28:50;4.80;83.20
64987;DHT22;51532;52.108;9.360;2023-02-01T13:39:53;4.90;83.20
64987;DHT22;51532;52.108;9.360;2023-02-01T13:45:16;4.70;83.40
64987;DHT22;51532;52.108;9.360;2023-02-01T13:47:46;4.80;83.30
64987;DHT22;51532;52.108;9.360;2023-02-01T13:50:37;4.70;82.90
64987;DHT22;51532;52.108;9.360;2023-02-01T13:58:43;4.70;84.10
64987;DHT22;51532;52.108;9.360;2023-02-01T14:03:53;4.30;88.80
64987;DHT22;51532;52.108;9.360;2023-02-01T14:09:14;4.40;89.20
64987;DHT22;51532;52.108;9.360;2023-02-01T14:11:54;4.40;88.40
64987;DHT22;51532;52.108;9.360;2023-02-01T14:19:21;4.50;86.00
64987;DHT22;51532;52.108;9.360;2023-02-01T14:21:59;4.50;85.50
64987;DHT22;51532;52.108;9.360;2023-02-01T14:24:33;4.50;85.00
64987;DHT22;51532;52.108;9.360;2023-02-01T14:27:24;3.60;85.90
64987;DHT22;51532;52.108;9.360;2023-02-01T14:29:58;2.40;89.40
64987;DHT22;51532;52.108;9.360;2023-02-01T14:32:31;2.30;90.90
64987;DHT22;51532;52.108;9.360;2023-02-01T14:35:02;2.20;91.40
64987;DHT22;51532;52.108;9.360;2023-02-01T14:37:35;2.20;91.90
64987;DHT22;51532;52.108;9.360;2023-02-01T14:42:45;2.00;92.30
64987;DHT22;51532;52.108;9.360;2023-02-01T15:01:04;2.20;92.50
64987;DHT22;51532;52.108;9.360;2023-02-01T15:04:08;2.20;92.60
64987;DHT22;51532;52.108;9.360;2023-02-01T15:06:42;2.10;92.50
64987;DHT22;51532;52.108;9.360;2023-02-01T15:15:02;2.20;92.70
64987;DHT22;51532;52.108;9.360;2023-02-01T15:17:31;2.20;92.80
64987;DHT22;51532;52.108;9.360;2023-02-01T15:20:24;2.20;92.90
64987;DHT22;51532;52.108;9.360;2023-02-01T15:23:01;2.20;93.20
64987;DHT22;51532;52.108;9.360;2023-02-01T15:25:33;2.20;93.40
64987;DHT22;51532;52.108;9.360;2023-02-01T15:28:02;2.20;93.50
64987;DHT22;51532;52.108;9.360;2023-02-01T15:30:32;2.30;93.70
64987;DHT22;51532;52.108;9.360;2023-02-01T15:35:44;2.50;93.90
64987;DHT22;51532;52.108;9.360;2023-02-01T15:41:06;2.70;94.10
64987;DHT22;51532;52.108;9.360;2023-02-01T15:46:25;2.90;94.20
64987;DHT22;51532;52.108;9.360;2023-02-01T15:48:56;2.90;94.20
64987;DHT22;51532;52.108;9.360;2023-02-01T15:51:25;3.10;94.10
64987;DHT22;51532;52.108;9.360;2023-02-01T15:54:01;3.20;94.00
64987;DHT22;51532;52.108;9.360;2023-02-01T15:56:34;3.30;93.90
64987;DHT22;51532;52.108;9.360;2023-02-01T15:59:03;3.30;93.90
64987;DHT22;51532;52.108;9.360;2023-02-01T16:01:36;3.30;93.90
64987;DHT22;51532;52.108;9.360;2023-02-01T16:06:54;3.30;92.30
64987;DHT22;51532;52.108;9.360;2023-02-01T16:09:36;2.90;90.50
64987;DHT22;51532;52.108;9.360;2023-02-01T16:12:03;2.60;91.90
64987;DHT22;51532;52.108;9.360;2023-02-01T16:14:30;2.70;92.60
64987;DHT22;51532;52.108;9.360;2023-02-01T16:16:58;2.70;92.70
64987;DHT22;51532;52.108;9.360;2023-02-01T16:19:25;2.50;92.80
64987;DHT22;51532;52.108;9.360;2023-02-01T16:21:55;2.40;93.20
64987;DHT22;51532;52.108;9.360;2023-02-01T16:24:22;2.40;93.50
64987;DHT22;51532;52.108;9.360;2023-02-01T16:26:51;2.40;93.70
64987;DHT22;51532;52.108;9.360;2023-02-01T16:29:18;2.40;93.80
64987;DHT22;51532;52.108;9.360;2023-02-01T16:31:45;2.40;94.00
64987;DHT22;51532;52.108;9.360;2023-02-01T16:34:15;2.50;94.10
64987;DHT22;51532;52.108;9.360;2023-02-01T16:36:46;2.50;94.20
64987;DHT22;51532;52.108;9.360;2023-02-01T16:39:19;2.50;94.30
64987;DHT22;51532;52.108;9.360;2023-02-01T16:41:45;2.60;94.40
64987;DHT22;51532;52.108;9.360;2023-02-01T16:44:12;2.60;94.50
64987;DHT22;51532;52.108;9.360;2023-02-01T16:46:41;2.70;94.50
64987;DHT22;51532;52.108;9.360;2023-02-01T16:49:23;2.80;94.60
64987;DHT22;51532;52.108;9.360;2023-02-01T16:51:54;3.00;94.70
64987;DHT22;51532;52.108;9.360;2023-02-01T16:54:22;3.10;94.70
64987;DHT22;51532;52.108;9.360;2023-02-01T16:56:49;3.30;94.70
64987;DHT22;51532;52.108;9.360;2023-02-01T16:59:16;3.50;94.60
64987;DHT22;51532;52.108;9.360;2023-02-01T17:01:43;3.50;94.50
64987;DHT22;51532;52.108;9.360;2023-02-01T17:04:11;3.70;94.20
64987;DHT22;51532;52.108;9.360;2023-02-01T17:06:38;3.80;94.10
64987;DHT22;51532;52.108;9.360;2023-02-01T17:09:06;3.80;93.90
64987;DHT22;51532;52.108;9.360;2023-02-01T17:11:33;3.90;93.60
64987;DHT22;51532;52.108;9.360;2023-02-01T17:14:16;4.00;93.00
64987;DHT22;51532;52.108;9.360;2023-02-01T17:16:45;4.00;92.80
64987;DHT22;51532;52.108;9.360;2023-02-01T17:19:16;4.00;93.00
64987;DHT22;51532;52.108;9.360;2023-02-01T17:21:54;4.00;92.50
64987;DHT22;51532;52.108;9.360;2023-02-01T17:24:24;4.00;92.30
64987;DHT22;51532;52.108;9.360;2023-02-01T17:27:01;4.00;91.40
64987;DHT22;51532;52.108;9.360;2023-02-01T17:29:30;4.00;91.80
64987;DHT22;51532;52.108;9.360;2023-02-01T17:31:56;4.00;90.20
64987;DHT22;51532;52.108;9.360;2023-02-01T17:34:26;3.90;89.60
64987;DHT22;51532;52.108;9.360;2023-02-01T17:36:53;4.00;89.00
64987;DHT22;51532;52.108;9.360;2023-02-01T17:39:20;3.90;88.80
64987;DHT22;51532;52.108;9.360;2023-02-01T17:42:10;4.00;87.20
64987;DHT22;51532;52.108;9.360;2023-02-01T17:44:37;4.00;88.40
64987;DHT22;51532;52.108;9.360;2023-02-01T17:47:04;3.90;87.70
64987;DHT22;51532;52.108;9.360;2023-02-01T17:49:30;3.90;88.10
64987;DHT22;51532;52.108;9.360;2023-02-01T17:51:57;4.00;85.80
64987;DHT22;51532;52.108;9.360;2023-02-01T17:54:24;4.00;86.00
64987;DHT22;51532;52.108;9.360;2023-02-01T17:56:51;4.00;86.60
64987;DHT22;51532;52.108;9.360;2023-02-01T17:59:18;4.00;85.80
64987;DHT22;51532;52.108;9.360;2023-02-01T18:01:45;4.10;84.80
64987;DHT22;51532;52.108;9.360;2023-02-01T18:04:15;4.20;84.90
64987;DHT22;51532;52.108;9.360;2023-02-01T18:06:44;4.40;85.00
64987;DHT22;51532;52.108;9.360;2023-02-01T18:09:11;4.40;84.20
64987;DHT22;51532;52.108;9.360;2023-02-01T18:11:38;4.50;83.10
64987;DHT22;51532;52.108;9.360;2023-02-01T18:14:05;4.40;83.70
64987;DHT22;51532;52.108;9.360;2023-02-01T18:16:33;4.40;84.00
64987;DHT22;51532;52.108;9.360;2023-02-01T18:19:00;4.40;83.10
64987;DHT22;51532;52.108;9.360;2023-02-01T18:21:40;4.50;82.00
64987;DHT22;51532;52.108;9.360;2023-02-01T18:24:15;4.70;80.90
64987;DHT22;51532;52.108;9.360;2023-02-01T18:26:42;4.70;80.50
64987;DHT22;51532;52.108;9.360;2023-02-01T18:29:09;4.70;81.10